createdAt,value
2022-12-22T00:00:51.816Z,0.00
2022-12-22T00:01:52.886Z,0.00
2022-12-22T00:02:51.957Z,0.00
2022-12-22T00:03:51.994Z,0.00
2022-12-22T00:04:51.775Z,0.00
2022-12-22T00:05:51.774Z,0.00
2022-12-22T00:06:51.731Z,0.00
2022-12-22T00:07:51.729Z,0.00
2022-12-22T00:08:51.728Z,0.00
2022-12-22T00:09:51.721Z,0.00
2022-12-22T00:10:51.711Z,0.00
2022-12-22T00:11:51.697Z,0.00
2022-12-22T00:12:51.668Z,0.00
2022-12-22T00:13:51.656Z,0.00
2022-12-22T00:14:51.664Z,0.00
2022-12-22T00:15:51.655Z,0.00
2022-12-22T00:16:51.714Z,0.00
2022-12-22T00:17:51.646Z,0.00
2022-12-22T00:18:51.620Z,0.00
2022-12-22T00:19:51.590Z,0.00
2022-12-22T00:20:51.596Z,0.00
2022-12-22T00:21:51.575Z,0.00
2022-12-22T00:22:51.565Z,0.00
2022-12-22T00:23:51.571Z,0.00
2022-12-22T00:24:51.558Z,0.00
2022-12-22T00:25:51.523Z,0.00
2022-12-22T00:26:51.509Z,0.00
2022-12-22T00:27:51.490Z,0.00
2022-12-22T00:28:51.499Z,0.00
2022-12-22T00:29:51.500Z,0.00
2022-12-22T00:30:51.544Z,0.00
2022-12-22T00:31:51.449Z,0.00
2022-12-22T00:32:51.453Z,0.00
2022-12-22T00:33:51.466Z,0.00
2022-12-22T00:34:51.436Z,0.00
2022-12-22T00:35:51.413Z,0.00
2022-12-22T00:36:51.396Z,0.00
2022-12-22T00:37:51.404Z,0.00
2022-12-22T00:38:51.375Z,0.00
2022-12-22T00:39:51.376Z,0.00
2022-12-22T00:40:51.354Z,0.00
2022-12-22T00:41:51.332Z,0.00
2022-12-22T00:42:51.345Z,0.00
2022-12-22T00:43:51.308Z,0.00
2022-12-22T00:44:51.314Z,0.00
2022-12-22T00:45:51.379Z,0.00
2022-12-22T00:46:51.280Z,0.00
2022-12-22T00:47:51.292Z,0.00
2022-12-22T00:48:51.258Z,0.00
2022-12-22T00:49:51.279Z,0.00
2022-12-22T00:50:51.237Z,0.00
2022-12-22T00:51:51.233Z,0.00
2022-12-22T00:52:51.223Z,0.00
2022-12-22T00:53:51.198Z,0.00
2022-12-22T00:54:51.205Z,0.00
2022-12-22T00:55:51.212Z,0.00
2022-12-22T00:56:51.189Z,0.00
2022-12-22T00:57:51.165Z,0.00
2022-12-22T00:58:51.153Z,0.00
2022-12-22T00:59:51.145Z,0.00
2022-12-22T01:00:51.120Z,0.00
2022-12-22T01:01:51.188Z,0.00
2022-12-22T01:02:51.249Z,0.00
2022-12-22T01:03:51.228Z,0.00
2022-12-22T01:04:51.069Z,0.00
2022-12-22T01:05:51.082Z,0.00
2022-12-22T01:06:51.056Z,0.00
2022-12-22T01:07:51.070Z,0.00
2022-12-22T01:08:51.036Z,0.00
2022-12-22T01:09:51.012Z,0.00
2022-12-22T01:10:51.006Z,0.00
2022-12-22T01:11:51.049Z,0.00
2022-12-22T01:12:50.986Z,0.00
2022-12-22T01:13:50.964Z,0.00
2022-12-22T01:14:50.958Z,0.00
2022-12-22T01:15:50.965Z,0.00
2022-12-22T01:16:50.931Z,0.00
2022-12-22T01:17:50.940Z,0.00
2022-12-22T01:18:50.923Z,0.00
2022-12-22T01:19:50.896Z,0.00
2022-12-22T01:20:50.898Z,0.00
2022-12-22T01:21:50.888Z,0.00
2022-12-22T01:22:50.888Z,0.00
2022-12-22T01:23:50.849Z,0.00
2022-12-22T01:24:50.848Z,0.00
2022-12-22T01:25:50.851Z,0.00
2022-12-22T01:26:50.822Z,0.00
2022-12-22T01:27:50.818Z,0.00
2022-12-22T01:28:50.794Z,0.00
2022-12-22T01:29:50.779Z,0.00
2022-12-22T01:30:50.824Z,0.00
2022-12-22T01:31:50.792Z,0.00
2022-12-22T01:32:50.748Z,0.00
2022-12-22T01:33:50.749Z,0.00
2022-12-22T01:34:50.747Z,0.00
2022-12-22T01:35:50.732Z,0.00
2022-12-22T01:36:50.708Z,0.00
2022-12-22T01:37:50.735Z,0.00
2022-12-22T01:38:50.686Z,0.00
2022-12-22T01:39:50.661Z,0.00
2022-12-22T01:40:50.685Z,0.00
2022-12-22T01:41:50.640Z,0.00
2022-12-22T01:42:50.634Z,0.00
2022-12-22T01:43:50.636Z,0.00
2022-12-22T01:44:50.643Z,0.00
2022-12-22T01:45:50.672Z,0.00
2022-12-22T01:46:50.630Z,0.00
2022-12-22T01:47:50.566Z,0.00
2022-12-22T01:48:50.703Z,0.00
2022-12-22T01:49:50.594Z,0.00
2022-12-22T01:50:50.561Z,0.00
2022-12-22T01:51:50.535Z,0.00
2022-12-22T01:52:50.517Z,0.00
2022-12-22T01:53:50.517Z,0.00
2022-12-22T01:54:50.543Z,0.00
2022-12-22T01:55:50.482Z,0.00
2022-12-22T01:56:50.616Z,0.00
2022-12-22T01:57:50.642Z,0.00
2022-12-22T01:58:50.446Z,0.00
2022-12-22T01:59:50.500Z,0.00
2022-12-22T02:00:50.452Z,0.00
2022-12-22T02:01:50.523Z,0.00
2022-12-22T02:02:50.603Z,0.00
2022-12-22T02:03:50.470Z,0.00
2022-12-22T02:04:50.405Z,0.00
2022-12-22T02:05:50.366Z,0.00
2022-12-22T02:06:56.273Z,0.00
2022-12-22T02:07:51.349Z,0.00
2022-12-22T02:08:50.356Z,0.00
2022-12-22T02:09:50.341Z,0.00
2022-12-22T02:10:50.337Z,0.00
2022-12-22T02:11:50.296Z,0.00
2022-12-22T02:12:50.288Z,0.00
2022-12-22T02:13:50.272Z,0.00
2022-12-22T02:14:50.289Z,0.00
2022-12-22T02:15:50.305Z,0.00
2022-12-22T02:16:50.292Z,0.00
2022-12-22T02:17:50.232Z,0.00
2022-12-22T02:18:50.220Z,0.00
2022-12-22T02:19:50.229Z,0.00
2022-12-22T02:20:50.219Z,0.00
2022-12-22T02:21:50.181Z,0.00
2022-12-22T02:22:50.179Z,0.00
2022-12-22T02:23:50.161Z,0.00
2022-12-22T02:24:50.176Z,0.00
2022-12-22T02:25:50.336Z,0.00
2022-12-22T02:26:50.132Z,0.00
2022-12-22T02:27:50.128Z,0.00
2022-12-22T02:28:50.106Z,0.00
2022-12-22T02:29:52.690Z,0.00
2022-12-22T02:30:50.132Z,0.00
2022-12-22T02:31:50.177Z,0.00
2022-12-22T02:32:50.195Z,0.00
2022-12-22T02:33:50.048Z,0.00
2022-12-22T02:34:50.050Z,0.00
2022-12-22T02:35:50.024Z,0.00
2022-12-22T02:36:50.030Z,0.00
2022-12-22T02:37:50.027Z,0.00
2022-12-22T02:38:49.991Z,0.00
2022-12-22T02:39:50.050Z,0.00
2022-12-22T02:40:49.983Z,0.00
2022-12-22T02:41:49.988Z,0.00
2022-12-22T02:42:49.950Z,0.00
2022-12-22T02:43:49.960Z,0.00
2022-12-22T02:44:49.925Z,0.00
2022-12-22T02:45:49.918Z,0.00
2022-12-22T02:46:49.965Z,0.00
2022-12-22T02:47:49.913Z,0.00
2022-12-22T02:48:49.879Z,0.00
2022-12-22T02:49:49.870Z,0.00
2022-12-22T02:50:49.856Z,0.00
2022-12-22T02:51:49.844Z,0.00
2022-12-22T02:52:49.853Z,0.00
2022-12-22T02:53:49.815Z,0.00
2022-12-22T02:54:49.812Z,0.00
2022-12-22T02:55:49.794Z,0.00
2022-12-22T02:56:49.813Z,0.00
2022-12-22T02:57:49.781Z,0.00
2022-12-22T02:58:49.786Z,0.00
2022-12-22T02:59:49.746Z,0.00
2022-12-22T03:00:49.738Z,0.00
2022-12-22T03:01:49.884Z,0.00
2022-12-22T03:02:49.865Z,0.00
2022-12-22T03:03:49.801Z,0.00
2022-12-22T03:04:49.693Z,0.00
2022-12-22T03:05:49.697Z,0.00
2022-12-22T03:06:49.671Z,0.00
2022-12-22T03:07:49.648Z,0.00
2022-12-22T03:08:49.673Z,0.00
2022-12-22T03:09:49.632Z,0.00
2022-12-22T03:10:49.657Z,0.00
2022-12-22T03:11:49.615Z,0.00
2022-12-22T03:12:49.627Z,0.00
2022-12-22T03:13:49.619Z,0.00
2022-12-22T03:14:49.573Z,0.00
2022-12-22T03:15:49.610Z,0.00
2022-12-22T03:16:49.551Z,0.00
2022-12-22T03:17:49.557Z,0.00
2022-12-22T03:18:49.540Z,0.00
2022-12-22T03:19:49.533Z,0.00
2022-12-22T03:20:49.507Z,0.00
2022-12-22T03:21:49.496Z,0.00
2022-12-22T03:22:49.513Z,0.00
2022-12-22T03:23:49.467Z,0.00
2022-12-22T03:24:49.464Z,0.00
2022-12-22T03:25:49.475Z,0.00
2022-12-22T03:26:49.453Z,0.00
2022-12-22T03:27:49.416Z,0.00
2022-12-22T03:28:49.437Z,0.00
2022-12-22T03:29:49.414Z,0.00
2022-12-22T03:30:49.392Z,0.00
2022-12-22T03:31:49.534Z,0.00
2022-12-22T03:32:49.368Z,0.00
2022-12-22T03:33:49.365Z,0.00
2022-12-22T03:34:49.375Z,0.00
2022-12-22T03:35:49.328Z,0.00
2022-12-22T03:36:49.320Z,0.00
2022-12-22T03:37:49.313Z,0.00
2022-12-22T03:38:49.317Z,0.00
2022-12-22T03:39:49.279Z,0.00
2022-12-22T03:40:49.333Z,0.00
2022-12-22T03:41:49.264Z,0.00
2022-12-22T03:42:49.252Z,0.00
2022-12-22T03:43:49.259Z,0.00
2022-12-22T03:44:49.239Z,0.00
2022-12-22T03:45:49.240Z,0.00
2022-12-22T03:46:49.298Z,0.00
2022-12-22T03:47:49.189Z,0.00
2022-12-22T03:48:49.178Z,0.00
2022-12-22T03:49:49.174Z,0.00
2022-12-22T03:50:49.186Z,0.00
2022-12-22T03:51:49.179Z,0.00
2022-12-22T03:52:49.137Z,0.00
2022-12-22T03:53:49.159Z,0.00
2022-12-22T03:54:49.129Z,0.00
2022-12-22T03:55:49.100Z,0.00
2022-12-22T03:56:49.108Z,0.00
2022-12-22T03:57:49.083Z,0.00
2022-12-22T03:58:49.082Z,0.00
2022-12-22T03:59:49.070Z,0.00
2022-12-22T04:00:49.090Z,0.00
2022-12-22T04:01:49.314Z,0.00
2022-12-22T04:02:49.313Z,0.00
2022-12-22T04:03:49.029Z,0.00
2022-12-22T04:04:48.996Z,0.00
2022-12-22T04:05:48.995Z,0.00
2022-12-22T04:06:50.932Z,0.00
2022-12-22T04:07:48.973Z,0.00
2022-12-22T04:08:48.951Z,0.00
2022-12-22T04:09:48.994Z,0.00
2022-12-22T04:10:48.974Z,0.00
2022-12-22T04:11:48.968Z,0.00
2022-12-22T04:12:48.910Z,0.00
2022-12-22T04:13:48.905Z,0.00
2022-12-22T04:14:48.890Z,0.00
2022-12-22T04:15:48.889Z,0.00
2022-12-22T04:16:48.997Z,0.00
2022-12-22T04:17:48.874Z,0.00
2022-12-22T04:18:48.839Z,0.00
2022-12-22T04:19:48.829Z,0.00
2022-12-22T04:20:48.814Z,0.00
2022-12-22T04:21:48.827Z,0.00
2022-12-22T04:22:48.786Z,0.00
2022-12-22T04:23:48.776Z,0.00
2022-12-22T04:24:48.790Z,0.00
2022-12-22T04:25:48.749Z,0.00
2022-12-22T04:26:48.759Z,0.00
2022-12-22T04:27:48.739Z,0.00
2022-12-22T04:28:48.781Z,0.00
2022-12-22T04:29:48.704Z,0.00
2022-12-22T04:30:48.702Z,0.00
2022-12-22T04:31:48.747Z,0.00
2022-12-22T04:32:48.672Z,0.00
2022-12-22T04:33:48.676Z,0.00
2022-12-22T04:34:48.657Z,0.00
2022-12-22T04:35:48.669Z,0.00
2022-12-22T04:36:48.649Z,0.00
2022-12-22T04:37:48.619Z,0.00
2022-12-22T04:38:48.620Z,0.00
2022-12-22T04:39:48.589Z,0.00
2022-12-22T04:40:48.578Z,0.00
2022-12-22T04:41:48.630Z,0.00
2022-12-22T04:42:48.561Z,0.00
2022-12-22T04:43:48.546Z,0.00
2022-12-22T04:44:48.555Z,0.00
2022-12-22T04:45:48.558Z,0.00
2022-12-22T04:46:48.511Z,0.00
2022-12-22T04:47:48.505Z,0.00
2022-12-22T04:48:48.482Z,0.00
2022-12-22T04:49:48.495Z,0.00
2022-12-22T04:50:48.481Z,0.00
2022-12-22T04:51:48.459Z,0.00
2022-12-22T04:52:48.442Z,0.00
2022-12-22T04:53:48.511Z,0.00
2022-12-22T04:54:48.418Z,0.00
2022-12-22T04:55:48.422Z,0.00
2022-12-22T04:56:48.393Z,0.00
2022-12-22T04:57:48.389Z,0.00
2022-12-22T04:58:48.432Z,0.00
2022-12-22T04:59:48.364Z,0.00
2022-12-22T05:00:48.385Z,0.00
2022-12-22T05:01:48.590Z,0.00
2022-12-22T05:02:48.371Z,0.00
2022-12-22T05:03:48.382Z,0.00
2022-12-22T05:04:48.296Z,0.00
2022-12-22T05:05:48.327Z,0.00
2022-12-22T05:06:48.272Z,0.00
2022-12-22T05:07:48.272Z,0.00
2022-12-22T05:08:48.254Z,0.00
2022-12-22T05:09:48.336Z,0.00
2022-12-22T05:10:48.252Z,0.00
2022-12-22T05:11:48.237Z,0.00
2022-12-22T05:12:48.203Z,0.00
2022-12-22T05:13:48.208Z,0.00
2022-12-22T05:14:48.180Z,0.00
2022-12-22T05:15:48.196Z,0.00
2022-12-22T05:16:48.212Z,0.00
2022-12-22T05:17:48.151Z,0.00
2022-12-22T05:18:48.137Z,0.00
2022-12-22T05:19:48.124Z,0.00
2022-12-22T05:20:48.137Z,0.00
2022-12-22T05:21:48.141Z,0.00
2022-12-22T05:22:48.099Z,0.00
2022-12-22T05:23:48.097Z,0.00
2022-12-22T05:24:48.061Z,0.00
2022-12-22T05:25:48.065Z,0.00
2022-12-22T05:26:48.039Z,0.00
2022-12-22T05:27:48.034Z,0.00
2022-12-22T05:28:48.112Z,0.00
2022-12-22T05:29:48.048Z,0.00
2022-12-22T05:30:48.049Z,0.00
2022-12-22T05:31:48.000Z,0.00
2022-12-22T05:32:47.970Z,0.00
2022-12-22T05:33:47.986Z,0.00
2022-12-22T05:34:47.953Z,0.00
2022-12-22T05:35:47.960Z,0.00
2022-12-22T05:36:47.927Z,0.00
2022-12-22T05:37:47.947Z,0.00
2022-12-22T05:38:47.903Z,0.00
2022-12-22T05:39:47.966Z,0.00
2022-12-22T05:40:47.890Z,0.00
2022-12-22T05:41:47.875Z,0.00
2022-12-22T05:42:47.887Z,0.00
2022-12-22T05:43:49.827Z,0.00
2022-12-22T05:44:47.849Z,0.00
2022-12-22T05:45:47.853Z,0.00
2022-12-22T05:46:47.809Z,0.00
2022-12-22T05:47:47.801Z,0.00
2022-12-22T05:48:47.787Z,0.00
2022-12-22T05:49:47.799Z,0.00
2022-12-22T05:50:47.776Z,0.00
2022-12-22T05:51:47.759Z,0.00
2022-12-22T05:52:47.763Z,0.00
2022-12-22T05:53:47.759Z,0.00
2022-12-22T05:54:47.725Z,0.00
2022-12-22T05:55:47.723Z,0.00
2022-12-22T05:56:48.082Z,0.00
2022-12-22T05:57:47.740Z,0.00
2022-12-22T05:58:47.694Z,0.00
2022-12-22T05:59:47.673Z,0.00
2022-12-22T06:00:47.641Z,0.00
2022-12-22T06:01:47.750Z,0.00
2022-12-22T06:02:47.747Z,0.00
2022-12-22T06:03:47.677Z,0.00
2022-12-22T06:04:47.600Z,0.00
2022-12-22T06:05:47.598Z,0.00
2022-12-22T06:06:47.630Z,0.00
2022-12-22T06:07:47.575Z,0.00
2022-12-22T06:08:47.558Z,0.00
2022-12-22T06:09:47.578Z,0.00
2022-12-22T06:10:47.531Z,0.00
2022-12-22T06:11:47.554Z,0.00
2022-12-22T06:12:47.509Z,0.00
2022-12-22T06:13:47.515Z,0.00
2022-12-22T06:14:47.503Z,0.00
2022-12-22T06:15:47.592Z,0.00
2022-12-22T06:16:47.475Z,0.00
2022-12-22T06:17:47.466Z,0.00
2022-12-22T06:18:47.460Z,0.00
2022-12-22T06:19:47.460Z,0.00
2022-12-22T06:20:47.411Z,0.00
2022-12-22T06:21:47.410Z,0.00
2022-12-22T06:22:47.412Z,0.00
2022-12-22T06:23:47.399Z,0.00
2022-12-22T06:24:47.376Z,0.00
2022-12-22T06:25:47.450Z,0.00
2022-12-22T06:26:47.349Z,0.00
2022-12-22T06:27:47.478Z,0.00
2022-12-22T06:28:47.352Z,0.00
2022-12-22T06:29:47.349Z,0.00
2022-12-22T06:30:47.359Z,0.00
2022-12-22T06:31:47.335Z,0.00
2022-12-22T06:32:47.307Z,0.00
2022-12-22T06:33:47.273Z,0.00
2022-12-22T06:34:47.280Z,0.00
2022-12-22T06:35:50.853Z,0.00
2022-12-22T06:36:48.256Z,0.00
2022-12-22T06:37:47.266Z,0.00
2022-12-22T06:38:47.204Z,0.00
2022-12-22T06:39:47.208Z,0.00
2022-12-22T06:40:47.209Z,0.00
2022-12-22T06:41:47.195Z,0.00
2022-12-22T06:42:47.168Z,0.00
2022-12-22T06:43:47.180Z,0.00
2022-12-22T06:44:47.132Z,0.00
2022-12-22T06:45:47.139Z,0.00
2022-12-22T06:46:47.207Z,0.00
2022-12-22T06:47:47.137Z,0.00
2022-12-22T06:48:47.097Z,0.00
2022-12-22T06:49:47.081Z,0.00
2022-12-22T06:50:47.070Z,0.00
2022-12-22T06:51:47.081Z,0.00
2022-12-22T06:52:47.050Z,0.00
2022-12-22T06:53:47.032Z,0.00
2022-12-22T06:54:47.024Z,0.00
2022-12-22T06:55:47.044Z,0.00
2022-12-22T06:56:46.992Z,0.00
2022-12-22T06:57:47.009Z,0.00
2022-12-22T06:58:46.993Z,0.00
2022-12-22T06:59:49.807Z,0.00
2022-12-22T07:00:47.975Z,0.00
2022-12-22T07:01:47.046Z,0.00
2022-12-22T07:02:47.234Z,0.00
2022-12-22T07:03:46.951Z,0.00
2022-12-22T07:04:46.912Z,0.00
2022-12-22T07:05:46.922Z,0.00
2022-12-22T07:06:46.882Z,0.00
2022-12-22T07:07:46.903Z,0.00
2022-12-22T07:08:46.859Z,0.00
2022-12-22T07:09:46.852Z,0.00
2022-12-22T07:10:46.880Z,0.00
2022-12-22T07:11:46.831Z,0.00
2022-12-22T07:12:46.812Z,0.00
2022-12-22T07:13:46.839Z,0.00
2022-12-22T07:14:46.798Z,0.00
2022-12-22T07:15:46.847Z,0.00
2022-12-22T07:16:47.399Z,0.00
2022-12-22T07:17:46.754Z,0.00
2022-12-22T07:18:46.759Z,0.00
2022-12-22T07:19:46.739Z,0.00
2022-12-22T07:20:46.748Z,0.00
2022-12-22T07:21:46.722Z,0.00
2022-12-22T07:22:46.700Z,0.00
2022-12-22T07:23:46.713Z,0.00
2022-12-22T07:24:46.677Z,0.00
2022-12-22T07:25:46.665Z,0.00
2022-12-22T07:26:46.647Z,0.00
2022-12-22T07:27:46.652Z,0.00
2022-12-22T07:28:46.624Z,0.00
2022-12-22T07:29:46.657Z,0.00
2022-12-22T07:30:46.600Z,0.00
2022-12-22T07:31:46.664Z,0.00
2022-12-22T07:32:46.581Z,0.00
2022-12-22T07:33:46.587Z,0.00
2022-12-22T07:34:46.584Z,0.00
2022-12-22T07:35:46.592Z,0.00
2022-12-22T07:36:46.547Z,0.00
2022-12-22T07:37:46.528Z,0.00
2022-12-22T07:38:46.514Z,0.00
2022-12-22T07:39:46.547Z,0.00
2022-12-22T07:40:51.729Z,0.00
2022-12-22T07:41:47.479Z,0.00
2022-12-22T07:42:46.496Z,0.00
2022-12-22T07:43:46.483Z,0.00
2022-12-22T07:44:46.472Z,0.00
2022-12-22T07:45:46.447Z,0.00
2022-12-22T07:46:46.487Z,5.62
2022-12-22T07:47:46.412Z,5.62
2022-12-22T07:48:46.399Z,5.62
2022-12-22T07:49:46.423Z,5.62
2022-12-22T07:50:46.372Z,5.62
2022-12-22T07:51:47.203Z,5.62
2022-12-22T07:52:46.356Z,5.62
2022-12-22T07:53:46.369Z,5.62
2022-12-22T07:54:46.346Z,5.62
2022-12-22T07:55:46.419Z,5.62
2022-12-22T07:57:35.112Z,5.62
2022-12-22T07:58:35.078Z,5.62
2022-12-22T07:59:35.042Z,5.62
2022-12-22T08:00:35.120Z,5.62
2022-12-22T08:01:35.173Z,5.62
2022-12-22T08:02:38.723Z,5.62
2022-12-22T08:03:35.021Z,5.62
2022-12-22T08:04:35.073Z,5.62
2022-12-22T08:05:34.977Z,11.25
2022-12-22T08:06:34.968Z,11.25
2022-12-22T08:07:34.950Z,11.25
2022-12-22T08:08:34.944Z,11.25
2022-12-22T08:09:34.962Z,11.25
2022-12-22T08:10:34.919Z,11.25
2022-12-22T08:11:34.903Z,16.88
2022-12-22T08:12:34.948Z,16.88
2022-12-22T08:13:34.899Z,16.88
2022-12-22T08:14:34.877Z,11.25
2022-12-22T08:15:34.860Z,16.88
2022-12-22T08:16:35.001Z,16.88
2022-12-22T08:17:34.871Z,16.88
2022-12-22T08:18:34.873Z,16.88
2022-12-22T08:19:34.809Z,16.88
2022-12-22T08:20:34.802Z,11.25
2022-12-22T08:21:34.801Z,11.25
2022-12-22T08:22:34.793Z,11.25
2022-12-22T08:23:34.784Z,11.25
2022-12-22T08:24:34.786Z,11.25
2022-12-22T08:25:34.769Z,11.25
2022-12-22T08:26:34.754Z,11.25
2022-12-22T08:27:34.734Z,11.25
2022-12-22T08:28:34.727Z,11.25
2022-12-22T08:29:34.740Z,11.25
2022-12-22T08:30:34.719Z,11.25
2022-12-22T08:31:34.777Z,11.25
2022-12-22T08:32:34.841Z,11.25
2022-12-22T08:33:37.337Z,16.88
2022-12-22T08:34:34.644Z,16.88
2022-12-22T08:35:34.710Z,16.88
2022-12-22T08:36:34.634Z,16.88
2022-12-22T08:37:34.606Z,16.88
2022-12-22T08:38:34.609Z,16.88
2022-12-22T08:39:34.819Z,16.88
2022-12-22T08:40:34.573Z,16.88
2022-12-22T08:41:34.576Z,16.88
2022-12-22T08:42:34.562Z,16.88
2022-12-22T08:43:34.547Z,16.88
2022-12-22T08:44:34.549Z,22.50
2022-12-22T08:45:34.520Z,22.50
2022-12-22T08:46:34.609Z,22.50
2022-12-22T08:47:34.581Z,28.12
2022-12-22T08:48:34.522Z,28.12
2022-12-22T08:49:34.643Z,28.12
2022-12-22T08:50:34.458Z,28.12
2022-12-22T08:51:34.466Z,28.12
2022-12-22T08:52:34.430Z,33.75
2022-12-22T08:54:35.430Z,28.12
2022-12-22T08:55:34.402Z,28.12
2022-12-22T08:56:34.403Z,28.12
2022-12-22T08:57:34.371Z,22.50
2022-12-22T08:58:34.363Z,22.50
2022-12-22T08:59:34.587Z,22.50
2022-12-22T09:00:34.420Z,28.12
2022-12-22T09:01:34.509Z,28.12
2022-12-22T09:02:34.489Z,28.12
2022-12-22T09:03:34.424Z,28.12
2022-12-22T09:04:43.648Z,28.12
2022-12-22T09:05:34.482Z,28.12
2022-12-22T09:06:40.512Z,28.12
2022-12-22T09:07:35.370Z,28.12
2022-12-22T09:08:34.362Z,22.50
2022-12-22T09:09:34.496Z,22.50
2022-12-22T09:10:42.034Z,22.50
2022-12-22T09:11:34.272Z,22.50
2022-12-22T09:12:34.288Z,22.50
2022-12-22T09:13:34.310Z,22.50
2022-12-22T09:14:34.236Z,22.50
2022-12-22T09:15:34.214Z,22.50
2022-12-22T09:16:34.216Z,22.50
2022-12-22T09:17:34.157Z,22.50
2022-12-22T09:18:34.275Z,22.50
2022-12-22T09:19:34.122Z,22.50
2022-12-22T09:20:34.153Z,22.50
2022-12-22T09:21:34.093Z,22.50
2022-12-22T09:22:34.119Z,22.50
2022-12-22T09:23:34.080Z,22.50
2022-12-22T09:24:34.130Z,22.50
2022-12-22T09:25:34.091Z,28.12
2022-12-22T09:26:34.050Z,28.12
2022-12-22T09:27:34.052Z,28.12
2022-12-22T09:28:34.025Z,22.50
2022-12-22T09:29:34.035Z,22.50
2022-12-22T09:30:34.031Z,22.50
2022-12-22T09:31:34.121Z,22.50
2022-12-22T09:32:33.973Z,16.88
2022-12-22T09:33:33.976Z,16.88
2022-12-22T09:34:33.986Z,11.25
2022-12-22T09:35:33.932Z,11.25
2022-12-22T09:36:33.957Z,11.25
2022-12-22T09:37:33.925Z,11.25
2022-12-22T09:38:33.916Z,11.25
2022-12-22T09:39:33.945Z,11.25
2022-12-22T09:40:33.883Z,11.25
2022-12-22T09:41:33.912Z,11.25
2022-12-22T09:42:33.873Z,11.25
2022-12-22T09:43:33.861Z,11.25
2022-12-22T09:44:33.860Z,11.25
2022-12-22T09:45:33.932Z,11.25
2022-12-22T09:46:33.818Z,11.25
2022-12-22T09:47:33.795Z,11.25
2022-12-22T09:48:33.816Z,11.25
2022-12-22T09:49:33.791Z,11.25
2022-12-22T09:50:33.778Z,16.88
2022-12-22T09:51:33.755Z,16.88
2022-12-22T09:52:33.764Z,16.88
2022-12-22T09:53:33.750Z,16.88
2022-12-22T09:54:33.722Z,16.88
2022-12-22T09:55:33.708Z,16.88
2022-12-22T09:56:33.714Z,16.88
2022-12-22T09:57:33.688Z,16.88
2022-12-22T09:58:33.768Z,11.25
2022-12-22T09:59:33.657Z,11.25
2022-12-22T10:00:33.678Z,11.25
2022-12-22T10:01:33.808Z,11.25
2022-12-22T10:02:33.694Z,11.25
2022-12-22T10:03:33.697Z,5.62
2022-12-22T10:04:33.625Z,5.62
2022-12-22T10:05:33.627Z,5.62
2022-12-22T10:06:36.352Z,5.62
2022-12-22T10:07:33.573Z,5.62
2022-12-22T10:08:33.606Z,5.62
2022-12-22T10:09:49.514Z,5.62
2022-12-22T10:10:34.534Z,5.62
2022-12-22T10:11:33.551Z,5.62
2022-12-22T10:12:33.527Z,5.62
2022-12-22T10:13:33.499Z,5.62
2022-12-22T10:14:33.523Z,5.62
2022-12-22T10:15:33.477Z,5.62
2022-12-22T10:16:33.532Z,5.62
2022-12-22T10:17:33.478Z,5.62
2022-12-22T10:18:33.440Z,5.62
2022-12-22T10:19:33.426Z,5.62
2022-12-22T10:20:33.454Z,5.62
2022-12-22T10:21:33.421Z,5.62
2022-12-22T10:22:33.403Z,5.62
2022-12-22T10:23:33.405Z,5.62
2022-12-22T10:24:33.455Z,5.62
2022-12-22T10:25:52.576Z,5.62
2022-12-22T10:26:34.386Z,5.62
2022-12-22T10:27:33.333Z,5.62
2022-12-22T10:28:33.327Z,5.62
2022-12-22T10:29:33.330Z,11.25
2022-12-22T10:30:33.319Z,11.25
2022-12-22T10:31:33.324Z,11.25
2022-12-22T10:32:33.319Z,16.88
2022-12-22T10:33:33.262Z,16.88
2022-12-22T10:34:33.253Z,16.88
2022-12-22T10:35:33.239Z,16.88
2022-12-22T10:36:33.285Z,22.50
2022-12-22T10:37:33.814Z,22.50
2022-12-22T10:38:33.226Z,22.50
2022-12-22T10:39:33.211Z,22.50
2022-12-22T10:40:33.201Z,28.12
2022-12-22T10:41:33.176Z,28.12
2022-12-22T10:42:33.161Z,28.12
2022-12-22T10:43:33.172Z,33.75
2022-12-22T10:44:33.180Z,28.12
2022-12-22T10:45:33.326Z,28.12
2022-12-22T10:46:33.237Z,33.75
2022-12-22T10:47:33.132Z,33.75
2022-12-22T10:48:33.097Z,33.75
2022-12-22T10:49:33.096Z,39.38
2022-12-22T10:50:33.107Z,39.38
2022-12-22T10:51:33.893Z,39.38
2022-12-22T10:52:33.196Z,33.75
2022-12-22T10:53:33.055Z,33.75
2022-12-22T10:54:33.059Z,33.75
2022-12-22T10:55:33.033Z,33.75
2022-12-22T10:56:33.030Z,33.75
2022-12-22T10:57:33.028Z,33.75
2022-12-22T10:58:32.985Z,39.38
2022-12-22T10:59:32.976Z,39.38
2022-12-22T11:00:32.972Z,39.38
2022-12-22T11:01:33.096Z,39.38
2022-12-22T11:02:33.175Z,39.38
2022-12-22T11:03:33.199Z,39.38
2022-12-22T11:04:32.928Z,39.38
2022-12-22T11:05:32.897Z,39.38
2022-12-22T11:06:32.883Z,39.38
2022-12-22T11:07:32.907Z,39.38
2022-12-22T11:08:32.886Z,39.38
2022-12-22T11:09:34.644Z,39.38
2022-12-22T11:10:32.878Z,39.38
2022-12-22T11:11:32.833Z,39.38
2022-12-22T11:12:32.847Z,39.38
2022-12-22T11:13:32.814Z,33.75
2022-12-22T11:14:32.849Z,39.38
2022-12-22T11:15:32.814Z,39.38
2022-12-22T11:16:32.825Z,33.75
2022-12-22T11:17:32.761Z,28.12
2022-12-22T11:18:32.783Z,33.75
2022-12-22T11:19:32.736Z,33.75
2022-12-22T11:20:32.756Z,33.75
2022-12-22T11:21:32.715Z,28.12
2022-12-22T11:22:32.714Z,28.12
2022-12-22T11:23:32.736Z,28.12
2022-12-22T11:24:32.685Z,28.12
2022-12-22T11:25:32.670Z,28.12
2022-12-22T11:26:32.679Z,33.75
2022-12-22T11:27:32.700Z,33.75
2022-12-22T11:28:32.650Z,33.75
2022-12-22T11:29:32.634Z,33.75
2022-12-22T11:30:32.671Z,33.75
2022-12-22T11:31:32.655Z,33.75
2022-12-22T11:32:32.629Z,33.75
2022-12-22T11:33:32.606Z,33.75
2022-12-22T11:34:32.567Z,33.75
2022-12-22T11:35:32.891Z,33.75
2022-12-22T11:36:32.539Z,28.12
2022-12-22T11:37:32.537Z,33.75
2022-12-22T11:38:32.574Z,33.75
2022-12-22T11:39:32.531Z,33.75
2022-12-22T11:40:32.503Z,33.75
2022-12-22T11:41:32.523Z,33.75
2022-12-22T11:42:32.479Z,39.38
2022-12-22T11:43:32.466Z,39.38
2022-12-22T11:44:32.996Z,39.38
2022-12-22T11:45:34.236Z,45.00
2022-12-22T11:46:33.504Z,45.00
2022-12-22T11:47:32.423Z,45.00
2022-12-22T11:48:32.403Z,45.00
2022-12-22T11:49:32.399Z,45.00
2022-12-22T11:51:01.704Z,39.38
2022-12-22T11:51:33.382Z,39.38
2022-12-22T11:52:32.359Z,39.38
2022-12-22T11:53:32.352Z,39.38
2022-12-22T11:54:32.364Z,39.38
2022-12-22T11:55:32.353Z,39.38
2022-12-22T11:56:32.341Z,33.75
2022-12-22T11:57:32.325Z,33.75
2022-12-22T11:58:32.377Z,33.75
2022-12-22T11:59:32.289Z,28.12
2022-12-22T12:01:03.666Z,33.75
2022-12-22T12:01:33.288Z,33.75
2022-12-22T12:02:32.469Z,33.75
2022-12-22T12:03:32.380Z,33.75
2022-12-22T12:04:32.350Z,39.38
2022-12-22T12:05:32.242Z,39.38
2022-12-22T12:06:32.206Z,33.75
2022-12-22T12:07:32.229Z,39.38
2022-12-22T12:08:32.184Z,39.38
2022-12-22T12:09:32.193Z,39.38
2022-12-22T12:10:32.179Z,28.12
2022-12-22T12:11:32.154Z,28.12
2022-12-22T12:12:32.151Z,28.12
2022-12-22T12:13:37.033Z,28.12
2022-12-22T12:14:33.106Z,22.50
2022-12-22T12:15:32.121Z,22.50
2022-12-22T12:16:32.199Z,22.50
2022-12-22T12:17:32.097Z,22.50
2022-12-22T12:18:32.100Z,22.50
2022-12-22T12:19:32.056Z,28.12
2022-12-22T12:20:32.050Z,28.12
2022-12-22T12:21:32.031Z,33.75
2022-12-22T12:22:32.017Z,33.75
2022-12-22T12:23:32.032Z,33.75
2022-12-22T12:24:32.002Z,28.12
2022-12-22T12:25:32.008Z,28.12
2022-12-22T12:26:32.017Z,33.75
2022-12-22T12:27:31.963Z,22.50
2022-12-22T12:28:31.949Z,22.50
2022-12-22T12:29:31.962Z,22.50
2022-12-22T12:30:39.747Z,22.50
2022-12-22T12:31:33.008Z,22.50
2022-12-22T12:32:31.920Z,22.50
2022-12-22T12:33:31.893Z,22.50
2022-12-22T12:34:31.875Z,22.50
2022-12-22T12:35:31.885Z,22.50
2022-12-22T12:36:31.905Z,16.88
2022-12-22T12:37:31.849Z,22.50
2022-12-22T12:39:06.200Z,22.50
2022-12-22T12:39:32.840Z,22.50
2022-12-22T12:40:31.807Z,22.50
2022-12-22T12:41:31.802Z,22.50
2022-12-22T12:42:31.821Z,16.88
2022-12-22T12:43:31.795Z,16.88
2022-12-22T12:44:31.787Z,16.88
2022-12-22T12:45:31.771Z,16.88
2022-12-22T12:46:31.792Z,16.88
2022-12-22T12:47:31.741Z,16.88
2022-12-22T12:48:31.733Z,16.88
2022-12-22T12:49:31.715Z,16.88
2022-12-22T12:50:31.713Z,16.88
2022-12-22T12:51:31.685Z,16.88
2022-12-22T12:52:31.694Z,22.50
2022-12-22T12:53:31.683Z,22.50
2022-12-22T12:54:31.673Z,16.88
2022-12-22T12:55:33.022Z,16.88
2022-12-22T12:56:31.624Z,16.88
2022-12-22T12:57:31.661Z,16.88
2022-12-22T12:58:31.603Z,16.88
2022-12-22T12:59:31.594Z,16.88
2022-12-22T13:00:31.631Z,16.88
2022-12-22T13:01:31.904Z,16.88
2022-12-22T13:02:31.719Z,16.88
2022-12-22T13:04:02.011Z,11.25
2022-12-22T13:04:32.629Z,11.25
2022-12-22T13:05:31.562Z,11.25
2022-12-22T13:06:31.568Z,11.25
2022-12-22T13:07:31.520Z,11.25
2022-12-22T13:08:32.955Z,11.25
2022-12-22T13:10:01.069Z,11.25
2022-12-22T13:10:32.464Z,11.25
2022-12-22T13:12:10.668Z,11.25